createdAt,value
2022-09-14T00:05:41.656Z,21.85
2022-09-14T00:15:46.444Z,22.34
2022-09-14T00:25:48.273Z,21.03
2022-09-14T00:35:50.023Z,20.66
2022-09-14T00:45:51.900Z,22.24
2022-09-14T00:55:54.501Z,22.84
2022-09-14T01:06:02.376Z,21.59
2022-09-14T01:16:13.363Z,21.13
2022-09-14T01:26:27.262Z,22.63
2022-09-14T01:36:29.105Z,21.13
2022-09-14T01:46:36.058Z,20.33
2022-09-14T01:56:41.687Z,21.54
2022-09-14T02:06:45.022Z,20.10
2022-09-14T02:16:46.853Z,19.24
2022-09-14T02:26:51.543Z,20.63
2022-09-14T02:37:19.699Z,19.18
2022-09-14T02:47:24.848Z,16.12
2022-09-14T02:57:27.252Z,16.84
2022-09-14T03:07:28.918Z,18.92
2022-09-14T03:17:30.573Z,19.73
2022-09-14T03:27:32.342Z,18.56
2022-09-14T03:37:36.955Z,18.09
2022-09-14T03:47:39.353Z,19.88
2022-09-14T03:57:41.228Z,18.82
2022-09-14T04:07:42.901Z,18.43
2022-09-14T04:17:44.703Z,20.15
2022-09-14T04:27:59.033Z,19.08
2022-09-14T04:38:08.239Z,16.68
2022-09-14T04:48:10.006Z,18.02
2022-09-14T04:58:11.781Z,20.67
2022-09-14T05:08:13.579Z,21.89
2022-09-14T05:18:15.324Z,21.29
2022-09-14T05:28:17.161Z,19.12
2022-09-14T05:38:21.025Z,20.43
2022-09-14T05:48:23.642Z,22.89
2022-09-14T05:58:26.543Z,22.12
2022-09-14T06:08:28.595Z,19.93
2022-09-14T06:18:33.390Z,20.78
2022-09-14T06:28:36.691Z,22.99
2022-09-14T06:38:39.316Z,22.27
2022-09-14T06:48:43.891Z,20.31
2022-09-14T06:58:45.760Z,21.52
2022-09-14T07:08:48.180Z,23.01
2022-09-14T07:18:52.807Z,23.45
2022-09-14T07:28:58.141Z,23.92
2022-09-14T07:38:59.880Z,24.29
2022-09-14T07:49:02.650Z,25.42
2022-09-14T07:59:34.432Z,26.46
2022-09-14T08:09:27.924Z,26.54
2022-09-14T08:19:30.407Z,30.81
2022-09-14T08:29:32.359Z,35.28
2022-09-14T08:39:33.998Z,38.65
2022-09-14T08:49:41.854Z,35.04
2022-09-14T08:59:46.872Z,30.59
2022-09-14T09:09:52.939Z,29.59
2022-09-14T09:19:54.676Z,31.48
2022-09-14T09:29:56.461Z,35.74
2022-09-14T09:40:02.410Z,35.12
2022-09-14T09:50:13.833Z,30.87
2022-09-14T10:00:18.846Z,30.49
2022-09-14T10:10:22.030Z,32.79
2022-09-14T10:20:25.013Z,32.46
2022-09-14T10:30:28.874Z,30.27
2022-09-14T10:40:37.725Z,28.73
2022-09-14T10:50:42.536Z,26.92
2022-09-14T11:00:53.828Z,26.47
2022-09-14T11:11:11.190Z,25.54
2022-09-14T11:21:32.406Z,24.24
2022-09-14T11:32:16.981Z,23.30
2022-09-14T11:42:16.186Z,22.98
2022-09-14T11:52:18.102Z,22.51
2022-09-14T12:02:23.193Z,21.90
2022-09-14T12:12:30.395Z,21.55
2022-09-14T12:22:34.272Z,21.52
2022-09-14T12:32:41.085Z,21.49
2022-09-14T12:42:43.232Z,21.09
2022-09-14T12:53:11.649Z,21.05
2022-09-14T13:03:46.682Z,21.43
2022-09-14T13:13:49.429Z,21.59
2022-09-14T13:23:51.537Z,21.19
2022-09-14T13:33:54.917Z,20.86
2022-09-14T13:43:57.965Z,20.79
2022-09-14T13:54:16.707Z,20.74
2022-09-14T14:04:24.129Z,20.48
2022-09-14T14:14:31.042Z,20.14
2022-09-14T14:24:33.690Z,19.88
2022-09-14T14:34:36.615Z,19.79
2022-09-14T14:44:38.458Z,19.93
2022-09-14T14:54:43.098Z,20.26
2022-09-14T15:04:45.326Z,20.20
2022-09-14T15:14:47.117Z,19.73
2022-09-14T15:24:48.780Z,19.32
2022-09-14T15:34:51.090Z,19.26
2022-09-14T15:44:54.928Z,21.27
2022-09-14T15:54:56.697Z,23.80
2022-09-14T16:04:58.867Z,23.19
2022-09-14T16:15:00.651Z,20.95
2022-09-14T16:25:02.365Z,21.61
2022-09-14T16:35:08.168Z,23.28
2022-09-14T16:45:10.477Z,22.29
2022-09-14T16:55:12.375Z,19.77
2022-09-14T17:05:14.789Z,20.30
2022-09-14T17:15:16.822Z,21.93
2022-09-14T17:25:18.754Z,21.05
2022-09-14T17:35:20.803Z,18.69
2022-09-14T17:45:22.986Z,19.34
2022-09-14T17:55:26.502Z,21.06
2022-09-14T18:05:28.732Z,21.87
2022-09-14T18:15:31.143Z,20.83
2022-09-14T18:25:34.095Z,18.43
2022-09-14T18:35:38.107Z,19.09
2022-09-14T18:45:40.015Z,21.16
2022-09-14T18:55:42.299Z,21.93
2022-09-14T19:05:47.807Z,20.73
2022-09-14T19:15:52.254Z,18.22
2022-09-14T19:25:54.893Z,18.91
2022-09-14T19:36:02.217Z,20.89
2022-09-14T19:46:19.210Z,21.67
2022-09-14T19:56:25.698Z,20.41
2022-09-14T20:06:34.330Z,17.93
2022-09-14T20:16:40.757Z,18.86
2022-09-14T20:26:42.621Z,20.95
2022-09-14T20:36:44.626Z,21.97
2022-09-14T20:46:47.214Z,20.90
2022-09-14T20:56:49.140Z,18.33
2022-09-14T21:06:52.963Z,19.14
2022-09-14T21:16:56.916Z,21.28
2022-09-14T21:26:58.698Z,22.16
2022-09-14T21:37:00.469Z,20.94
2022-09-14T21:47:03.143Z,18.32
2022-09-14T21:57:04.983Z,19.11
2022-09-14T22:07:07.087Z,21.25
2022-09-14T22:17:08.825Z,22.07
2022-09-14T22:27:10.807Z,20.87
2022-09-14T22:37:12.551Z,18.19
2022-09-14T22:47:14.260Z,18.93
2022-09-14T22:57:15.983Z,20.91
2022-09-14T23:07:20.228Z,21.72
2022-09-14T23:17:24.221Z,20.42
2022-09-14T23:27:26.504Z,19.74
2022-09-14T23:37:28.255Z,20.91
2022-09-14T23:47:29.948Z,21.43
2022-09-14T23:57:31.666Z,20.27
